Bonaire, GA

10:09 AM EDT on July 30, 2014 (GMT -0400)
Eastpoint Plantation (KGAKATHL2) Elev 335 ft | 32.51 °N, 83.65 °W | Change Station

Current weather conditions updated 0 second ago

Clear
Clear
76.4 °F
Feels Like 78 °F
N
0.0
Wind Variable Wind from ESE
Gusts 2.0 mph

Today is forecast to be nearly the same temperature as yesterday.

Today
High -- | Low -- °F
--% Chance of Precip.
Yesterday
High -- | Low -- °F
Precip. -- in
6:47 AM 8:34 PM
Waxing Crescent, 12% visible
Pressure 30.03 in
Visibility 10.0 miles
Clouds Clear
Heat Index 78 °F
Dew Point 63 °F
Humidity 64%
Rainfall 0.00 in
Snow Depth Not available.
UV 5 out of 12
Pollen 4.80 out of 12
Air Quality Not available.
Flu Activity Not available.
METAR KWRB 301358Z VRB02KT 10SM CLR 23/16 A3003 RMK AO2A SLP169 $

More Conditions Fewer Conditions

Pressure 30.03 in
Visibility 10.0 miles
Clouds Clear
Heat Index 78 °F
Dew Point 63 °F
Humidity 64%
Rainfall 0.00 in
Snow Depth Not available.
UV 5 out of 12
Pollen 4.80 out of 12
Air Quality Not available.
Flu Activity Not available.
METAR KWRB 301358Z VRB02KT 10SM CLR 23/16 A3003 RMK AO2A SLP169 $

More Conditions Fewer Conditions

10-Day Weather Forecast

Almanac

Astronomy

Jul. 30, 2014 Rise Set
Actual Time 6:47 AM EDT 8:34 PM EDT
Civil Twilight 6:20 AM EDT 9:00 PM EDT
Nautical Twilight 5:47 AM EDT 9:33 PM EDT
Astronomical Twilight 5:13 AM EDT 10:07 PM EDT
Moon 10:03 AM EDT 10:31 PM EDT
Length of Visible Light 14h 40m
Length of Day
13h 46m
Tomorrow will be 1m 28s shorter.
Waxing Crescent, 12% of the Moon is Illuminated
Today
Waxing Crescent
Aug 3
First Quarter
Aug 10
Full
Aug 17
Last Quarter
Aug 25
New

Today's Extremes

State Highs State Lows

Community

WunderPhotos

Upload Photos

1,739,082 photos uploaded!

Nearby

Snow Depth

Station Depth Elevation
No new snow has been reported.

Earthquake Activity

City Distance Mag. Time & Date
No recent earthquake activity has been reported nearby.
Minimum magnitude displayed is 2.5.

Coastal Water Temperatures

Place Temperature
No Stations Reporting

Nearby Weather Stations

Station Location Temp. Heat Index Dew Point Humidity Wind Precip. Elev Updated Type
Eastpoint Plantation, Kathleen, GA 76.4 °F 78 °F 63 °F 64% ESE  at  0.0 mph 0.00 in / hr 335 ft 10:09 AM EDT Rapid Fire
Lake Joy Village, Perry, GA 78.2 °F 79 °F 58 °F 51% North  at  3.1 mph 0.00 in / hr 351 ft 10:09 AM EDT Rapid Fire
Centerville, GA 73.5 °F 75 °F 64 °F 71% East  at  3.0 mph 0.00 in / hr 450 ft 10:02 AM EDT Normal
Rocky Creek WWTP, Macon, GA 65.1 °F - 61 °F 86% West  at  1.0 mph 0.00 in / hr 322 ft 7:15 AM EDT Normal
WA4RG, Fort Valley, GA 72.0 °F 75 °F 62 °F 70% NE  at  0.0 mph 0.00 in / hr 538 ft 10:09 AM EDT Rapid Fire
Mercer University, Macon, GA 71.9 °F 75 °F 60 °F 66% North  at  3.0 mph 0.00 in / hr 430 ft 10:09 AM EDT Rapid Fire
Pierce Ave (Hwy 247), Macon, GA 69.6 °F - 64 °F 81% WSW  at  0.0 mph 0.00 in / hr 375 ft 10:05 AM EDT Normal

Show More Stations Show Fewer Stations